createdAt,value
2018-02-08T00:00:57.699Z,6.26
2018-02-08T00:03:27.426Z,6.07
2018-02-08T00:05:58.118Z,6.19
2018-02-08T00:08:28.412Z,6.23
2018-02-08T00:10:58.515Z,6.19
2018-02-08T00:13:28.347Z,6.18
2018-02-08T00:15:58.828Z,6.18
2018-02-08T00:18:29.273Z,6.18
2018-02-08T00:20:59.721Z,6.17
2018-02-08T00:23:31.163Z,6.10
2018-02-08T00:26:01.053Z,6.08
2018-02-08T00:28:31.477Z,5.98
2018-02-08T00:31:01.491Z,5.95
2018-02-08T00:33:31.828Z,5.93
2018-02-08T00:36:02.201Z,5.86
2018-02-08T00:38:32.423Z,5.82
2018-02-08T00:41:02.767Z,5.71
2018-02-08T00:43:33.370Z,5.63
2018-02-08T00:46:03.507Z,5.62
2018-02-08T00:48:33.987Z,5.55
2018-02-08T00:51:04.188Z,5.51
2018-02-08T00:53:34.969Z,5.56
2018-02-08T00:56:05.641Z,5.45
2018-02-08T00:58:36.438Z,5.38
2018-02-08T01:01:06.850Z,5.25
2018-02-08T01:03:36.727Z,5.15
2018-02-08T01:06:07.360Z,5.15
2018-02-08T01:08:37.660Z,5.20
2018-02-08T01:11:07.934Z,5.23
2018-02-08T01:13:38.438Z,5.28
2018-02-08T01:16:08.782Z,5.16
2018-02-08T01:18:39.513Z,5.12
2018-02-08T01:21:10.582Z,5.08
2018-02-08T01:23:40.901Z,5.22
2018-02-08T01:26:11.444Z,5.13
2018-02-08T01:28:41.250Z,5.18
2018-02-08T01:31:11.679Z,5.25
2018-02-08T01:33:41.889Z,5.28
2018-02-08T01:36:12.396Z,5.29
2018-02-08T01:38:42.543Z,5.33
2018-02-08T01:41:12.322Z,5.37
2018-02-08T01:43:42.694Z,5.36
2018-02-08T01:46:13.077Z,5.39
2018-02-08T01:48:43.563Z,5.44
2018-02-08T01:51:13.557Z,5.47
2018-02-08T01:53:43.402Z,5.53
2018-02-08T01:56:13.441Z,5.53
2018-02-08T01:58:43.245Z,5.59
2018-02-08T02:01:12.990Z,5.75
2018-02-08T02:03:43.457Z,5.85
2018-02-08T02:06:14.236Z,5.94
2018-02-08T02:08:44.106Z,6.01
2018-02-08T02:11:14.444Z,5.99
2018-02-08T02:13:44.496Z,6.09
2018-02-08T02:16:15.332Z,6.08
2018-02-08T02:18:45.703Z,6.23
2018-02-08T02:21:16.351Z,6.38
2018-02-08T02:23:46.095Z,6.51
2018-02-08T02:26:16.544Z,6.44
2018-02-08T02:28:47.013Z,6.64
2018-02-08T02:31:17.384Z,6.89
2018-02-08T02:33:47.832Z,6.87
2018-02-08T02:36:18.504Z,6.73
2018-02-08T02:38:48.544Z,6.76
2018-02-08T02:41:19.237Z,6.61
2018-02-08T02:43:49.301Z,6.67
2018-02-08T02:46:20.715Z,6.98
2018-02-08T02:48:50.828Z,6.62
2018-02-08T02:51:20.688Z,6.40
2018-02-08T02:53:51.116Z,6.12
2018-02-08T02:56:21.451Z,6.14
2018-02-08T02:58:51.973Z,6.08
2018-02-08T03:01:22.611Z,5.94
2018-02-08T03:03:53.181Z,5.83
2018-02-08T03:06:23.501Z,5.82
2018-02-08T03:08:53.396Z,5.68
2018-02-08T03:11:23.723Z,5.73
2018-02-08T03:13:54.133Z,5.75
2018-02-08T03:16:24.449Z,5.82
2018-02-08T03:18:54.935Z,5.95
2018-02-08T03:21:25.229Z,5.86
2018-02-08T03:23:55.676Z,5.78
2018-02-08T03:26:25.951Z,5.80
2018-02-08T03:28:58.091Z,5.63
2018-02-08T03:31:28.408Z,5.53
2018-02-08T03:33:59.669Z,5.53
2018-02-08T03:36:30.144Z,5.77
2018-02-08T03:39:00.411Z,5.72
2018-02-08T03:41:30.791Z,5.69
2018-02-08T03:44:00.587Z,5.62
2018-02-08T03:46:30.533Z,5.63
2018-02-08T03:49:00.810Z,5.72
2018-02-08T03:51:31.044Z,5.77
2018-02-08T03:54:01.224Z,5.71
2018-02-08T03:56:31.841Z,5.71
2018-02-08T03:59:02.455Z,5.67
2018-02-08T04:01:32.741Z,5.62
2018-02-08T04:04:02.954Z,5.71
2018-02-08T04:06:33.344Z,5.69
2018-02-08T04:09:03.216Z,5.57
2018-02-08T04:11:33.328Z,5.51
2018-02-08T04:14:03.746Z,5.47
2018-02-08T04:16:34.017Z,5.59
2018-02-08T04:19:04.657Z,5.63
2018-02-08T04:21:35.240Z,5.76
2018-02-08T04:24:05.622Z,5.67
2018-02-08T04:26:35.778Z,5.73
2018-02-08T04:29:06.050Z,5.81
2018-02-08T04:31:36.412Z,5.73
2018-02-08T04:34:06.839Z,5.81
2018-02-08T04:36:36.921Z,5.81
2018-02-08T04:39:18.782Z,5.81
2018-02-08T04:42:00.688Z,5.73
2018-02-08T04:44:42.624Z,5.73
2018-02-08T04:47:27.287Z,5.80
2018-02-08T04:49:57.241Z,5.68
2018-02-08T04:52:27.688Z,5.64
2018-02-08T04:54:58.113Z,5.67
2018-02-08T04:57:28.427Z,5.63
2018-02-08T04:59:59.107Z,5.55
2018-02-08T05:02:29.202Z,5.55
2018-02-08T05:04:59.315Z,5.53
2018-02-08T05:07:29.789Z,5.52
2018-02-08T05:09:59.838Z,5.51
2018-02-08T05:12:30.083Z,5.41
2018-02-08T05:14:59.908Z,5.39
2018-02-08T05:17:29.613Z,5.39
2018-02-08T05:19:59.440Z,5.42
2018-02-08T05:22:29.196Z,5.49
2018-02-08T05:24:59.029Z,5.48
2018-02-08T05:27:28.963Z,5.39
2018-02-08T05:29:58.750Z,5.39
2018-02-08T05:32:28.481Z,5.29
2018-02-08T05:34:58.170Z,5.31
2018-02-08T05:37:27.890Z,5.21
2018-02-08T05:39:57.655Z,5.14
2018-02-08T05:42:27.409Z,5.10
2018-02-08T05:44:57.163Z,5.06
2018-02-08T05:47:26.887Z,5.07
2018-02-08T05:49:56.629Z,5.00
2018-02-08T05:52:26.418Z,4.93
2018-02-08T05:54:56.113Z,4.91
2018-02-08T05:57:25.858Z,4.93
2018-02-08T05:59:55.645Z,5.06
2018-02-08T06:02:25.413Z,5.11
2018-02-08T06:04:55.237Z,5.19
2018-02-08T06:07:25.001Z,5.29
2018-02-08T06:09:54.774Z,5.35
2018-02-08T06:12:24.537Z,5.45
2018-02-08T06:14:54.272Z,5.51
2018-02-08T06:17:24.046Z,5.55
2018-02-08T06:19:53.805Z,5.51
2018-02-08T06:22:23.576Z,5.63
2018-02-08T06:24:53.303Z,5.70
2018-02-08T06:27:23.077Z,5.62
2018-02-08T06:29:52.832Z,5.62
2018-02-08T06:32:22.572Z,5.71
2018-02-08T06:34:52.259Z,5.71
2018-02-08T06:37:22.077Z,5.78
2018-02-08T06:39:51.818Z,5.86
2018-02-08T06:42:21.621Z,5.89
2018-02-08T06:44:51.373Z,5.91
2018-02-08T06:47:21.095Z,5.93
2018-02-08T06:49:50.909Z,5.85
2018-02-08T06:52:20.673Z,5.97
2018-02-08T06:54:50.358Z,6.11
2018-02-08T06:57:20.096Z,6.31
2018-02-08T06:59:49.866Z,6.53
2018-02-08T07:02:19.679Z,6.64
2018-02-08T07:04:49.454Z,6.84
2018-02-08T07:07:19.252Z,6.97
2018-02-08T07:09:49.142Z,7.07
2018-02-08T07:12:18.914Z,7.16
2018-02-08T07:14:48.605Z,7.30
2018-02-08T07:17:18.470Z,7.20
2018-02-08T07:19:51.285Z,7.25
2018-02-08T07:22:21.092Z,7.39
2018-02-08T07:24:50.879Z,7.48
2018-02-08T07:27:20.704Z,7.62
2018-02-08T07:29:50.454Z,7.63
2018-02-08T07:32:20.273Z,7.76
2018-02-08T07:34:50.046Z,7.80
2018-02-08T07:37:19.745Z,7.81
2018-02-08T07:39:49.549Z,8.12
2018-02-08T07:44:55.158Z,7.87
2018-02-08T07:47:24.950Z,7.96
2018-02-08T07:49:54.694Z,7.92
2018-02-08T07:52:24.550Z,7.95
2018-02-08T07:54:54.439Z,8.06
2018-02-08T07:57:24.161Z,8.22
2018-02-08T07:59:53.899Z,8.22
2018-02-08T08:02:23.648Z,8.38
2018-02-08T08:04:53.426Z,8.34
2018-02-08T08:07:23.249Z,8.44
2018-02-08T08:09:52.982Z,8.44
2018-02-08T08:12:22.863Z,8.57
2018-02-08T08:14:52.568Z,8.49
2018-02-08T08:17:22.453Z,8.88
2018-02-08T08:19:52.277Z,9.10
2018-02-08T08:22:22.048Z,9.17
2018-02-08T08:24:51.864Z,9.45
2018-02-08T08:27:21.623Z,9.61
2018-02-08T08:29:51.404Z,9.75
2018-02-08T08:32:21.208Z,9.64
2018-02-08T08:34:50.889Z,9.82
2018-02-08T08:37:20.582Z,9.62
2018-02-08T08:39:50.447Z,9.71
2018-02-08T08:42:20.192Z,9.81
2018-02-08T08:44:49.939Z,10.10
2018-02-08T08:47:19.684Z,10.09
2018-02-08T08:49:49.487Z,10.25
2018-02-08T08:52:19.211Z,10.32
2018-02-08T08:54:48.991Z,10.11
2018-02-08T08:57:18.738Z,10.58
2018-02-08T08:59:48.490Z,10.96
2018-02-08T09:02:18.331Z,10.98
2018-02-08T09:04:48.158Z,11.06
2018-02-08T09:07:17.913Z,10.97
2018-02-08T09:09:47.654Z,10.78
2018-02-08T09:12:17.368Z,10.64
2018-02-08T09:14:47.116Z,10.63
2018-02-08T09:17:16.835Z,11.02
2018-02-08T09:19:46.656Z,11.12
2018-02-08T09:22:16.415Z,11.04
2018-02-08T09:24:46.207Z,11.45
2018-02-08T09:27:15.963Z,11.56
2018-02-08T09:29:45.768Z,11.82
2018-02-08T09:32:15.610Z,11.57
2018-02-08T09:34:45.358Z,11.62
2018-02-08T09:37:15.078Z,12.18
2018-02-08T09:39:44.845Z,12.44
2018-02-08T09:42:14.649Z,12.54
2018-02-08T09:44:44.325Z,12.90
2018-02-08T09:47:14.191Z,13.02
2018-02-08T09:49:43.963Z,12.76
2018-02-08T09:52:13.691Z,12.60
2018-02-08T09:54:43.404Z,12.53
2018-02-08T09:57:13.126Z,12.90
2018-02-08T09:59:46.319Z,12.64
2018-02-08T10:02:16.064Z,12.97
2018-02-08T10:04:45.863Z,13.35
2018-02-08T10:07:15.714Z,12.94
2018-02-08T10:09:45.493Z,13.54
2018-02-08T10:12:15.254Z,13.61
2018-02-08T10:14:44.955Z,13.85
2018-02-08T10:17:14.710Z,13.74
2018-02-08T10:19:44.521Z,13.58
2018-02-08T10:22:14.229Z,13.51
2018-02-08T10:24:44.062Z,13.80
2018-02-08T10:27:13.846Z,13.93
2018-02-08T10:29:43.623Z,14.37
2018-02-08T10:32:13.444Z,14.12
2018-02-08T10:34:43.143Z,14.54
2018-02-08T10:37:12.871Z,14.88
2018-02-08T10:39:42.660Z,15.02
2018-02-08T10:42:12.406Z,14.87
2018-02-08T10:44:42.113Z,14.85
2018-02-08T10:47:11.873Z,15.52
2018-02-08T10:49:41.737Z,15.68
2018-02-08T10:52:11.512Z,15.56
2018-02-08T10:54:41.280Z,15.21
2018-02-08T10:57:11.009Z,15.21
2018-02-08T10:59:40.811Z,15.37
2018-02-08T11:02:10.610Z,15.14
2018-02-08T11:04:40.377Z,15.57
2018-02-08T11:07:10.197Z,15.81
2018-02-08T11:09:39.968Z,15.68
2018-02-08T11:12:09.759Z,16.05
2018-02-08T11:14:39.563Z,16.48
2018-02-08T11:17:09.287Z,16.58
2018-02-08T11:19:39.084Z,17.04
2018-02-08T11:22:08.867Z,17.46
2018-02-08T11:24:38.612Z,17.41
2018-02-08T11:27:08.400Z,17.50
2018-02-08T11:29:38.206Z,17.93
2018-02-08T11:32:07.931Z,17.88
2018-02-08T11:34:37.682Z,17.79
2018-02-08T11:37:07.415Z,17.60
2018-02-08T11:39:37.254Z,17.39
2018-02-08T11:42:07.084Z,17.02
2018-02-08T11:44:36.874Z,17.52
2018-02-08T11:47:06.673Z,17.96
2018-02-08T11:49:36.496Z,17.55
2018-02-08T11:52:06.332Z,17.17
2018-02-08T11:54:36.024Z,17.54
2018-02-08T11:57:05.727Z,17.46
2018-02-08T11:59:35.507Z,17.96
2018-02-08T12:02:05.294Z,18.35
2018-02-08T12:04:35.095Z,18.59
2018-02-08T12:07:04.894Z,18.90
2018-02-08T12:09:34.662Z,19.15
2018-02-08T12:12:04.472Z,19.72
2018-02-08T12:14:34.160Z,20.18
2018-02-08T12:17:03.893Z,20.12
2018-02-08T12:19:33.656Z,18.90
2018-02-08T12:22:03.521Z,18.95
2018-02-08T12:24:33.337Z,19.36
2018-02-08T12:27:03.143Z,19.66
2018-02-08T12:29:32.990Z,19.68
2018-02-08T12:32:02.741Z,19.44
2018-02-08T12:34:32.440Z,19.81
2018-02-08T12:37:02.183Z,19.90
2018-02-08T12:39:32.957Z,19.83
2018-02-08T12:42:02.750Z,20.15
2018-02-08T12:44:32.498Z,20.83
2018-02-08T12:47:02.347Z,21.24
2018-02-08T12:49:32.091Z,21.58
2018-02-08T12:52:01.854Z,21.54
2018-02-08T12:54:31.584Z,21.79
2018-02-08T12:57:01.289Z,21.79
2018-02-08T12:59:31.115Z,21.09
2018-02-08T13:02:00.853Z,20.78
2018-02-08T13:04:30.692Z,20.82
2018-02-08T13:07:03.950Z,20.94
2018-02-08T13:09:33.733Z,20.95
2018-02-08T13:12:03.559Z,21.14
2018-02-08T13:14:33.296Z,21.12
2018-02-08T13:17:03.024Z,20.89
2018-02-08T13:19:32.723Z,20.41
2018-02-08T13:22:02.507Z,20.38
2018-02-08T13:24:32.329Z,20.37
2018-02-08T13:27:02.080Z,20.19
2018-02-08T13:29:31.928Z,20.58
2018-02-08T13:32:01.711Z,20.40
2018-02-08T13:34:31.463Z,20.46
2018-02-08T13:37:01.234Z,20.60
2018-02-08T13:39:34.596Z,20.88
2018-02-08T13:42:13.137Z,20.85
2018-02-08T13:44:42.873Z,20.80
2018-02-08T13:47:18.277Z,20.91
2018-02-08T13:50:02.936Z,20.78
2018-02-08T13:52:38.358Z,20.21
2018-02-08T13:55:12.954Z,20.17
2018-02-08T13:57:45.754Z,20.10
2018-02-08T14:00:19.482Z,19.75
2018-02-08T14:02:49.326Z,19.54
2018-02-08T14:05:19.071Z,19.70
2018-02-08T14:07:48.907Z,19.88
2018-02-08T14:10:18.676Z,19.40
2018-02-08T14:12:48.439Z,19.05
2018-02-08T14:15:18.156Z,19.17
2018-02-08T14:17:47.897Z,19.06
2018-02-08T14:20:17.708Z,19.37
2018-02-08T14:22:47.503Z,19.36
2018-02-08T14:25:17.278Z,19.47
2018-02-08T14:27:47.045Z,19.05
2018-02-08T14:30:16.821Z,18.72
2018-02-08T14:32:46.593Z,18.42
2018-02-08T14:35:16.291Z,18.22
2018-02-08T14:37:46.029Z,18.02
2018-02-08T14:40:15.866Z,18.09
2018-02-08T14:42:45.671Z,18.02
2018-02-08T14:45:15.401Z,17.89
2018-02-08T14:47:45.288Z,17.66
2018-02-08T14:50:15.030Z,17.52
2018-02-08T14:52:44.899Z,17.60
2018-02-08T14:55:14.617Z,17.48
2018-02-08T14:57:44.367Z,17.00
2018-02-08T15:00:14.148Z,16.59
2018-02-08T15:02:43.902Z,16.39
2018-02-08T15:05:13.757Z,16.07
2018-02-08T15:07:43.568Z,15.94
2018-02-08T15:10:13.384Z,15.87
2018-02-08T15:12:43.187Z,15.61
2018-02-08T15:15:12.930Z,15.51
2018-02-08T15:17:42.672Z,15.34
2018-02-08T15:20:12.392Z,15.05
2018-02-08T15:22:42.305Z,15.04
2018-02-08T15:25:12.052Z,14.93
2018-02-08T15:27:41.819Z,14.90
2018-02-08T15:30:11.541Z,14.85
2018-02-08T15:32:41.293Z,14.81
2018-02-08T15:35:11.006Z,14.69
2018-02-08T15:37:40.784Z,14.69
2018-02-08T15:40:10.505Z,14.65
2018-02-08T15:42:40.259Z,14.49
2018-02-08T15:45:10.011Z,14.45
2018-02-08T15:47:39.743Z,14.46
2018-02-08T15:50:09.590Z,14.48
2018-02-08T15:52:39.477Z,14.50
2018-02-08T15:55:09.255Z,14.51
2018-02-08T15:57:39.381Z,14.49
2018-02-08T16:00:09.209Z,14.54
2018-02-08T16:02:39.014Z,14.48
2018-02-08T16:05:08.843Z,14.38
2018-02-08T16:07:38.832Z,14.29
2018-02-08T16:10:08.591Z,14.18
2018-02-08T16:12:38.426Z,14.03
2018-02-08T16:15:08.127Z,13.86
2018-02-08T16:17:37.896Z,13.78
2018-02-08T16:20:07.643Z,13.80
2018-02-08T16:22:37.430Z,13.60
2018-02-08T16:25:07.266Z,13.39
2018-02-08T16:27:37.073Z,13.14
2018-02-08T16:30:06.871Z,13.04
2018-02-08T16:32:36.759Z,13.06
2018-02-08T16:35:06.530Z,12.90
2018-02-08T16:37:36.365Z,12.67
2018-02-08T16:40:06.115Z,12.58
2018-02-08T16:42:36.000Z,12.79
2018-02-08T16:45:05.719Z,12.79
2018-02-08T16:47:35.488Z,12.63
2018-02-08T16:50:05.275Z,12.66
2018-02-08T16:52:35.019Z,12.36
2018-02-08T16:55:04.711Z,12.16
2018-02-08T16:57:34.434Z,11.95
2018-02-08T17:00:04.188Z,11.50
2018-02-08T17:02:33.922Z,11.50
2018-02-08T17:05:03.682Z,11.44
2018-02-08T17:07:33.478Z,11.46
2018-02-08T17:10:03.341Z,11.69
2018-02-08T17:12:33.068Z,11.63
2018-02-08T17:15:02.843Z,11.60
2018-02-08T17:17:32.664Z,11.19
2018-02-08T17:20:02.476Z,11.14
2018-02-08T17:22:32.229Z,11.03
2018-02-08T17:25:01.922Z,11.04
2018-02-08T17:27:31.733Z,11.19
2018-02-08T17:30:01.547Z,11.26
2018-02-08T17:32:31.300Z,11.34
2018-02-08T17:35:01.046Z,11.42
2018-02-08T17:37:30.761Z,11.47
2018-02-08T17:40:00.517Z,11.62
2018-02-08T17:42:30.298Z,11.61
2018-02-08T17:45:00.013Z,11.63
2018-02-08T17:47:29.815Z,11.67
2018-02-08T17:49:59.669Z,11.72
2018-02-08T17:52:30.233Z,11.63
2018-02-08T17:55:01.127Z,11.66
2018-02-08T17:57:31.304Z,11.72
2018-02-08T18:00:01.633Z,11.73
2018-02-08T18:02:32.093Z,11.65
2018-02-08T18:05:02.373Z,11.60
2018-02-08T18:07:32.721Z,11.51
2018-02-08T18:10:03.185Z,11.00
2018-02-08T18:12:33.443Z,10.67
2018-02-08T18:15:03.803Z,10.70
2018-02-08T18:17:33.793Z,10.71
2018-02-08T18:20:04.934Z,10.83
2018-02-08T18:22:35.309Z,10.73
2018-02-08T18:25:05.461Z,10.67
2018-02-08T18:27:35.740Z,10.72
2018-02-08T18:30:05.992Z,10.88
2018-02-08T18:32:36.608Z,10.98
2018-02-08T18:35:06.319Z,11.08
2018-02-08T18:37:36.080Z,11.18
2018-02-08T18:40:06.762Z,11.08
2018-02-08T18:42:36.765Z,11.08
2018-02-08T18:45:06.581Z,11.06
2018-02-08T18:47:36.294Z,10.99
2018-02-08T18:50:06.102Z,10.75
2018-02-08T18:52:36.012Z,10.54
2018-02-08T18:55:05.774Z,10.41
2018-02-08T18:57:35.511Z,10.38
2018-02-08T19:00:05.319Z,10.10
2018-02-08T19:02:35.191Z,10.06
2018-02-08T19:05:04.966Z,9.93
2018-02-08T19:07:34.830Z,9.96
2018-02-08T19:10:04.614Z,10.03
2018-02-08T19:12:34.580Z,10.06
2018-02-08T19:15:04.403Z,9.95
2018-02-08T19:17:34.248Z,9.75
2018-02-08T19:20:04.252Z,9.65
2018-02-08T19:22:34.015Z,9.55
2018-02-08T19:25:03.786Z,9.26
2018-02-08T19:27:33.605Z,9.16
2018-02-08T19:30:03.450Z,9.23
2018-02-08T19:32:33.329Z,9.19
2018-02-08T19:35:03.031Z,9.26
2018-02-08T19:37:32.713Z,9.58
2018-02-08T19:40:02.398Z,9.49
2018-02-08T19:42:32.219Z,9.54
2018-02-08T19:45:02.228Z,9.55
2018-02-08T19:47:32.023Z,9.50
2018-02-08T19:50:01.749Z,9.58
2018-02-08T19:52:31.574Z,9.64
2018-02-08T19:55:01.284Z,9.70
2018-02-08T19:57:31.054Z,9.73
2018-02-08T20:00:00.841Z,9.75
2018-02-08T20:02:30.565Z,9.73
2018-02-08T20:05:00.310Z,9.72
2018-02-08T20:07:30.764Z,9.66
2018-02-08T20:10:00.567Z,9.68
2018-02-08T20:12:30.326Z,9.69
2018-02-08T20:15:00.942Z,9.71
2018-02-08T20:17:30.662Z,9.67
2018-02-08T20:20:00.447Z,9.56
2018-02-08T20:22:30.220Z,9.35
2018-02-08T20:24:59.980Z,9.05
2018-02-08T20:27:29.689Z,8.99
2018-02-08T20:29:59.399Z,8.86
2018-02-08T20:32:29.150Z,8.67
2018-02-08T20:34:58.898Z,8.78
2018-02-08T20:37:28.627Z,8.67
2018-02-08T20:39:59.399Z,8.61
2018-02-08T20:42:35.636Z,8.60
2018-02-08T20:45:05.454Z,8.56
2018-02-08T20:47:35.752Z,8.52
2018-02-08T20:50:05.971Z,8.28
2018-02-08T20:52:36.596Z,7.97
2018-02-08T20:55:06.982Z,7.88
2018-02-08T20:57:37.794Z,7.94
2018-02-08T21:00:08.324Z,8.08
2018-02-08T21:02:38.976Z,8.15
2018-02-08T21:05:09.891Z,8.16
2018-02-08T21:07:40.625Z,8.21
2018-02-08T21:10:11.067Z,8.32
2018-02-08T21:12:41.758Z,8.39
2018-02-08T21:15:12.350Z,8.45
2018-02-08T21:17:42.639Z,8.35
2018-02-08T21:20:13.419Z,8.47
2018-02-08T21:22:43.832Z,8.39
2018-02-08T21:25:14.147Z,8.45
2018-02-08T21:27:44.814Z,8.38
2018-02-08T21:30:15.151Z,8.30
2018-02-08T21:32:44.840Z,8.30
2018-02-08T21:35:15.452Z,8.39
2018-02-08T21:37:46.110Z,8.39
2018-02-08T21:40:16.557Z,8.38
2018-02-08T21:42:47.214Z,8.45
2018-02-08T21:45:17.543Z,8.42
2018-02-08T21:47:48.176Z,8.35
2018-02-08T21:50:18.692Z,8.39
2018-02-08T21:52:49.176Z,8.39
2018-02-08T21:55:19.655Z,8.38
2018-02-08T21:57:49.915Z,8.42
2018-02-08T22:00:20.191Z,8.44
2018-02-08T22:02:50.542Z,8.30
2018-02-08T22:05:21.538Z,8.25
2018-02-08T22:07:52.088Z,8.14
2018-02-08T22:10:22.491Z,8.26
2018-02-08T22:12:52.518Z,8.27
2018-02-08T22:15:23.286Z,8.39
2018-02-08T22:17:53.910Z,8.45
2018-02-08T22:20:24.646Z,8.42
2018-02-08T22:22:55.147Z,8.44
2018-02-08T22:25:25.525Z,8.52
2018-02-08T22:27:55.787Z,8.67
2018-02-08T22:30:26.515Z,8.80
2018-02-08T22:32:56.954Z,8.81
2018-02-08T22:35:27.354Z,8.76
2018-02-08T22:37:57.680Z,8.85
2018-02-08T22:40:28.133Z,8.90
2018-02-08T22:42:58.550Z,8.92
2018-02-08T22:45:28.881Z,8.96
2018-02-08T22:47:59.187Z,8.96
2018-02-08T22:50:29.921Z,8.96
2018-02-08T22:53:00.586Z,8.99
2018-02-08T22:55:30.936Z,9.01
2018-02-08T22:58:01.408Z,8.93
2018-02-08T23:00:31.990Z,8.97
2018-02-08T23:03:02.824Z,9.03
2018-02-08T23:05:33.381Z,9.05
2018-02-08T23:08:04.022Z,9.05
2018-02-08T23:10:34.655Z,8.96
2018-02-08T23:13:05.621Z,8.99
2018-02-08T23:15:35.859Z,9.00
2018-02-08T23:18:06.137Z,8.99
2018-02-08T23:20:35.935Z,8.91
2018-02-08T23:23:06.209Z,8.81
2018-02-08T23:25:36.784Z,8.80
2018-02-08T23:28:07.351Z,8.68
2018-02-08T23:30:37.332Z,8.61
2018-02-08T23:33:07.131Z,8.63
2018-02-08T23:35:37.561Z,8.57
2018-02-08T23:38:07.874Z,8.60
2018-02-08T23:40:38.601Z,8.37
2018-02-08T23:43:09.204Z,8.13
2018-02-08T23:45:39.322Z,8.28
2018-02-08T23:48:09.289Z,8.43
2018-02-08T23:50:40.074Z,8.57
2018-02-08T23:53:10.539Z,8.72
2018-02-08T23:55:40.996Z,8.82
2018-02-08T23:58:11.321Z,8.35
